ePrivacy and GPDR Cookie Consent by Cookie Consent
EmailTwitter


Observations de surface / Royaume-Uni / EGLL (03772)

Régions: Québec | Canada | États-Unis | Europe | France | UK | Ailleurs
Station
Affichage
Infos & localisation pour EGLL (03772) | Aide pour décoder les METARs

Observations prises le 2024-04-18 à 04H50 UTC à LONDON/HEATHROW, UK (EGLL)

Température: 4.0 Celsius

Point de rosée: 3.0 Celsius

Humidité relative: 93%

Facteur vent: 2.

Vents: Nord à 9 km/h ou 5 noeuds.

Pression au niveau moyen de la mer: 102.10 kilopascals.

Visibilité horizontale: 6.21 milles terrestres ou 9.94 kilomètres.

Observation METAR:

EGLL 180450Z AUTO 36005KT 9999 NCD 04/03 Q1021=